AirNav   Everest Fuels
 
 1099 users online  

91WA Christensen Bros Wahluke Strip
Mattawa, Washington, USA

GOING TO MATTAWA?


FAA INFORMATION EFFECTIVE 04 NOVEMBER 2021

Location

FAA Identifier: 91WA
Lat/Long: 46-42-29.4800N 119-48-04.1440W
46-42.491333N 119-48.069067W
46.7081889,-119.8011511
(estimated)
Elevation: 840 ft. / 256 m (estimated)
Variation: 19E (1985)
From city: 3 miles SE of MATTAWA, WA
Time zone: UTC -8 (UTC -7 during Daylight Saving Time)
Zip code: 99349

Airport Operations

Airport use: Private use. Permission required prior to landing
Activation date: 01/1980
Control tower: no
ARTCC: SEATTLE CENTER
FSS: SEATTLE FLIGHT SERVICE STATION
Attendance: UNATNDD
Wind indicator: no
Segmented circle: no

Nearby radio navigation aids

VOR radial/distance  VOR name  Freq  Var
YKMr052/27.8YAKIMA VORTAC116.0021E
ELNr104/33.0ELLENSBURG VOR/DME117.9021E
MWHr195/36.1MOSES LAKE VOR/DME115.0018E
PSCr298/38.6PASCO VOR/DME109.8015E

Airport Services

Runway Information

Runway 7/25

Dimensions: 2500 x 20 ft. / 762 x 6 m
Surface: dirt
RUNWAY 7  RUNWAY 25
Traffic pattern: leftleft

Airport Ownership and Management from official FAA records

Ownership: Privately-owned
Owner: ROBERT R. CHRISTENSEN
26503 RD O SW
MATTAWA, WA 99349
Phone 509-840-4646
Manager: ROBERT R. CHRISTENSEN
26503 RD O SW
MATTAWA, WA 99349
Phone 509-840-4646

Additional Remarks

FOR CD CTC CHINOOK APCH AT 509-542-4209, WHEN APCH CLSD CTC SEATTLE ARTCC AT 253-351-3694.

Instrument Procedures

There are no published instrument procedures at 91WA.

Some nearby airports with instrument procedures:

KRLD - Richland Airport (32 nm SE)
KYKM - Yakima Air Terminal/McAllister Field (32 nm W)
KELN - Bowers Field Airport (36 nm NW)
KMWH - Grant County International Airport (36 nm NE)
KEPH - Ephrata Municipal Airport (38 nm N)
 
Loc | Ops | Rwys | IFR | FBO | Links
Com | Nav | Svcs | Stats | Notes
Area around 91WA (Christensen Bros Wahluke Strip)
 
Road maps at: MapQuest Bing Google
 
Aerial photo
WARNING: Photo may not be current or correct
Aerial photo of 91WA (Christensen Bros Wahluke Strip)
Photo by David Wyatt
from the west looking east

Do you have a better or more recent aerial photo of Christensen Bros Wahluke Strip that you would like to share? If so, please send us your photo.

 
Sectional chart

 
Airport distance calculator
Flying to Christensen Bros Wahluke Strip? Find the distance to fly.

From to 91WA

Sunrise and sunset
Times for 30-Nov-2021
 Local
(UTC-8)
 Zulu
(UTC)
Morning civil twilight06:4914:49
Sunrise07:2315:23
Sunset16:1300:13
Evening civil twilight16:4700:47

Current date and time
Zulu (UTC)  01-Dec-2021 02:57:50
Local (UTC-8)  30-Nov-2021 18:57:50
 
METAR
K1S5 
24nm S 
010255Z AUTO 33006KT 10SM CLR 12/06 A3019 RMK AO2 T01200061
TAF
KYKM 
31nm W 
301732Z 3018/0118 27005KT P6SM SCT080 BKN150 FM302000 25009KT P6SM BKN080 FM010300 26005KT P6SM SCT100 SCT250 FM011100 VRB04KT P6SM BKN250
KMWH 
36nm NE 
301738Z 3018/0118 20011G14KT P6SM SCT080 BKN150 FM010000 20010KT P6SM BKN060 FM010500 19006KT P6SM BKN100 WS020/24034KT
KPSC 
39nm SE 
302221Z 3022/0118 22020G28KT P6SM SCT100 FM010400 21011KT P6SM BKN100 FM011100 21006KT P6SM SCT250
NOTAMs
Click for the latest NOTAMs
NOTAMs are issued by the DoD/FAA and will open in a separate window not controlled by AirNav.

 

 
 

Would you like to see your business listed on this page?

 If your business provides an interesting product or service to pilots, flight crews, aircraft, or users of the Christensen Bros Wahluke Strip, you should consider listing it here.  To start the listing process, click on the button below
 
Add a business
 

Other Pages about Christensen Bros Wahluke Strip

Update a link
 
Copyright © AirNav, LLC. All rights reserved. Privacy Policy  Contact